createdAt,value
2023-02-16T00:01:28.841Z,54.20
2023-02-16T00:03:56.483Z,54.40
2023-02-16T00:06:24.314Z,54.40
2023-02-16T00:08:52.328Z,54.40
2023-02-16T00:11:40.525Z,54.60
2023-02-16T00:14:08.663Z,54.60
2023-02-16T00:16:35.791Z,54.70
2023-02-16T00:19:05.949Z,54.80
2023-02-16T00:21:32.743Z,55.00
2023-02-16T00:23:59.601Z,55.30
2023-02-16T00:26:27.622Z,55.30
2023-02-16T00:28:55.414Z,55.70
2023-02-16T00:31:26.764Z,55.70
2023-02-16T00:33:53.931Z,55.80
2023-02-16T00:36:21.023Z,55.90
2023-02-16T00:38:47.847Z,56.00
2023-02-16T00:41:36.006Z,56.10
2023-02-16T00:44:05.569Z,56.30
2023-02-16T00:46:32.635Z,56.30
2023-02-16T00:48:59.495Z,56.30
2023-02-16T00:51:26.930Z,56.30
2023-02-16T00:53:53.953Z,56.30
2023-02-16T00:56:21.584Z,56.20
2023-02-16T00:58:50.637Z,56.30
2023-02-16T01:01:18.418Z,56.10
2023-02-16T01:03:47.846Z,56.00
2023-02-16T01:06:33.362Z,55.80
2023-02-16T01:09:29.514Z,55.60
2023-02-16T01:11:56.688Z,55.60
2023-02-16T01:14:23.582Z,55.70
2023-02-16T01:16:50.672Z,55.70
2023-02-16T01:19:17.658Z,55.70
2023-02-16T01:21:46.972Z,55.80
2023-02-16T01:24:15.024Z,55.70
2023-02-16T01:26:43.868Z,55.70
2023-02-16T01:29:17.736Z,55.60
2023-02-16T01:31:45.165Z,55.80
2023-02-16T01:34:12.136Z,56.00
2023-02-16T01:36:43.849Z,56.10
2023-02-16T01:39:13.273Z,56.20
2023-02-16T01:41:55.343Z,56.20
2023-02-16T01:44:28.202Z,56.20
2023-02-16T01:46:55.039Z,56.20
2023-02-16T01:49:22.497Z,56.10
2023-02-16T01:51:49.312Z,56.00
2023-02-16T01:54:29.237Z,56.00
2023-02-16T01:57:11.306Z,56.70
2023-02-16T01:59:44.128Z,56.10
2023-02-16T02:02:17.696Z,56.20
2023-02-16T02:05:05.910Z,56.30
2023-02-16T02:07:35.896Z,56.30
2023-02-16T02:10:14.005Z,56.20
2023-02-16T02:13:02.769Z,56.10
2023-02-16T02:15:31.698Z,56.10
2023-02-16T02:17:58.731Z,56.00
2023-02-16T02:20:50.310Z,56.10
2023-02-16T02:23:32.155Z,56.20
2023-02-16T02:26:02.288Z,56.30
2023-02-16T02:28:56.905Z,56.30
2023-02-16T02:31:46.766Z,56.40
2023-02-16T02:34:22.460Z,56.50
2023-02-16T02:37:02.113Z,56.50
2023-02-16T02:39:41.287Z,56.60
2023-02-16T02:42:14.729Z,56.70
2023-02-16T02:44:49.191Z,56.70
2023-02-16T02:47:16.169Z,56.80
2023-02-16T02:49:53.071Z,56.80
2023-02-16T02:52:20.975Z,56.90
2023-02-16T02:55:07.115Z,57.10
2023-02-16T02:57:58.899Z,57.30
2023-02-16T03:00:44.309Z,57.50
2023-02-16T03:03:17.430Z,57.80
2023-02-16T03:05:46.004Z,57.80
2023-02-16T03:08:14.774Z,57.90
2023-02-16T03:11:02.102Z,58.20
2023-02-16T03:13:33.640Z,58.30
2023-02-16T03:16:03.145Z,58.40
2023-02-16T03:18:49.868Z,58.40
2023-02-16T03:21:35.496Z,58.40
2023-02-16T03:24:22.367Z,58.60
2023-02-16T03:27:09.423Z,58.80
2023-02-16T03:29:37.198Z,59.10
2023-02-16T03:32:04.239Z,59.40
2023-02-16T03:34:31.978Z,59.70
2023-02-16T03:37:00.684Z,59.90
2023-02-16T03:39:28.327Z,60.30
2023-02-16T03:41:56.906Z,60.60
2023-02-16T03:44:27.506Z,60.70
2023-02-16T03:46:54.446Z,60.80
2023-02-16T03:49:21.494Z,61.10
2023-02-16T03:51:48.517Z,61.30
2023-02-16T03:54:15.573Z,61.30
2023-02-16T03:56:42.574Z,61.60
2023-02-16T03:59:09.525Z,61.80
2023-02-16T04:01:36.553Z,62.10
2023-02-16T04:04:04.846Z,62.10
2023-02-16T04:06:31.918Z,62.30
2023-02-16T04:09:00.724Z,62.30
2023-02-16T04:11:46.276Z,62.30
2023-02-16T04:14:14.074Z,62.50
2023-02-16T04:16:41.066Z,62.60
2023-02-16T04:19:08.062Z,62.80
2023-02-16T04:21:35.170Z,62.80
2023-02-16T04:24:02.809Z,63.00
2023-02-16T04:26:29.686Z,63.10
2023-02-16T04:28:56.611Z,63.10
2023-02-16T04:31:23.618Z,63.20
2023-02-16T04:33:50.573Z,63.10
2023-02-16T04:36:17.629Z,63.40
2023-02-16T04:38:44.590Z,63.80
2023-02-16T04:41:11.475Z,63.80
2023-02-16T04:43:39.192Z,63.80
2023-02-16T04:46:06.151Z,64.00
2023-02-16T04:48:33.107Z,64.10
2023-02-16T04:51:00.041Z,64.10
2023-02-16T04:53:26.981Z,64.20
2023-02-16T04:55:53.987Z,65.10
2023-02-16T04:58:20.960Z,64.30
2023-02-16T05:00:47.895Z,64.30
2023-02-16T05:03:14.834Z,64.60
2023-02-16T05:05:41.789Z,64.50
2023-02-16T05:08:08.773Z,64.60
2023-02-16T05:10:35.977Z,64.50
2023-02-16T05:13:21.294Z,64.50
2023-02-16T05:15:48.459Z,64.50
2023-02-16T05:18:15.679Z,64.60
2023-02-16T05:21:01.300Z,64.60
2023-02-16T05:23:28.351Z,64.60
2023-02-16T05:25:55.269Z,64.70
2023-02-16T05:28:22.239Z,64.70
2023-02-16T05:30:49.310Z,65.00
2023-02-16T05:33:16.436Z,65.00
2023-02-16T05:35:43.335Z,65.10
2023-02-16T05:38:10.210Z,64.90
2023-02-16T05:40:37.142Z,65.50
2023-02-16T05:43:04.063Z,64.60
2023-02-16T05:45:31.072Z,64.60
2023-02-16T05:47:57.987Z,64.60
2023-02-16T05:50:25.737Z,64.60
2023-02-16T05:52:52.803Z,64.70
2023-02-16T05:55:19.739Z,64.80
2023-02-16T05:57:46.808Z,64.90
2023-02-16T06:00:14.392Z,64.90
2023-02-16T06:02:41.440Z,64.90
2023-02-16T06:05:08.547Z,64.80
2023-02-16T06:07:35.457Z,65.10
2023-02-16T06:10:02.598Z,65.20
2023-02-16T06:12:30.801Z,65.30
2023-02-16T06:14:58.231Z,65.50
2023-02-16T06:17:25.176Z,65.60
2023-02-16T06:19:52.101Z,65.50
2023-02-16T06:22:19.020Z,65.60
2023-02-16T06:24:45.941Z,65.50
2023-02-16T06:27:12.890Z,65.60
2023-02-16T06:29:39.803Z,65.60
2023-02-16T06:32:06.813Z,65.60
2023-02-16T06:34:33.769Z,65.30
2023-02-16T06:37:00.721Z,65.00
2023-02-16T06:39:27.629Z,64.60
2023-02-16T06:41:54.552Z,64.30
2023-02-16T06:44:21.477Z,64.20
2023-02-16T06:46:48.704Z,64.00
2023-02-16T06:49:18.773Z,63.70
2023-02-16T06:51:47.010Z,63.70
2023-02-16T06:54:14.647Z,63.50
2023-02-16T06:56:42.500Z,63.20
2023-02-16T06:59:11.170Z,62.90
2023-02-16T07:01:38.776Z,62.50
2023-02-16T07:04:05.756Z,61.90
2023-02-16T07:06:32.708Z,61.00
2023-02-16T07:09:00.277Z,60.00
2023-02-16T07:11:27.202Z,59.40
2023-02-16T07:13:54.138Z,58.80
2023-02-16T07:16:21.422Z,58.30
2023-02-16T07:18:48.569Z,58.30
2023-02-16T07:21:15.813Z,56.80
2023-02-16T07:23:43.255Z,56.70
2023-02-16T07:26:10.450Z,56.10
2023-02-16T07:28:37.579Z,56.00
2023-02-16T07:31:11.522Z,55.90
2023-02-16T07:33:38.947Z,55.80
2023-02-16T07:36:07.118Z,56.10
2023-02-16T07:38:34.005Z,56.30
2023-02-16T07:41:00.854Z,56.50
2023-02-16T07:43:27.962Z,56.60
2023-02-16T07:45:54.995Z,56.90
2023-02-16T07:48:22.221Z,56.80
2023-02-16T07:50:49.053Z,56.50
2023-02-16T07:53:15.834Z,56.10
2023-02-16T07:55:43.953Z,55.60
2023-02-16T07:58:11.243Z,55.10
2023-02-16T08:00:53.923Z,54.90
2023-02-16T08:03:24.635Z,54.60
2023-02-16T08:05:51.698Z,54.20
2023-02-16T08:08:18.613Z,54.30
2023-02-16T08:10:51.573Z,53.50
2023-02-16T08:13:20.602Z,52.60
2023-02-16T08:15:49.346Z,52.00
2023-02-16T08:18:47.509Z,50.90
2023-02-16T08:21:24.291Z,49.30
2023-02-16T08:24:01.632Z,49.00
2023-02-16T08:26:37.817Z,48.00
2023-02-16T08:29:06.021Z,46.90
2023-02-16T08:31:35.242Z,45.60
2023-02-16T08:34:03.885Z,44.30
2023-02-16T08:36:36.467Z,43.10
2023-02-16T08:39:07.252Z,41.60
2023-02-16T08:41:36.555Z,40.40
2023-02-16T08:44:05.245Z,39.80
2023-02-16T08:46:34.193Z,38.80
2023-02-16T08:49:04.693Z,38.20
2023-02-16T08:51:32.757Z,37.80
2023-02-16T08:54:00.274Z,37.10
2023-02-16T08:56:29.750Z,36.50
2023-02-16T08:58:57.310Z,35.50
2023-02-16T09:01:24.492Z,35.50
2023-02-16T09:03:51.693Z,35.80
2023-02-16T09:06:22.704Z,37.00
2023-02-16T09:08:53.120Z,37.60
2023-02-16T09:11:20.753Z,38.40
2023-02-16T09:13:47.911Z,37.80
2023-02-16T09:16:16.961Z,38.20
2023-02-16T09:18:47.314Z,38.20
2023-02-16T09:21:19.475Z,38.50
2023-02-16T09:23:48.192Z,39.10
2023-02-16T09:26:16.559Z,39.40
2023-02-16T09:28:43.737Z,39.70
2023-02-16T09:31:15.220Z,39.80
2023-02-16T09:33:42.607Z,39.70
2023-02-16T09:36:10.545Z,39.60
2023-02-16T09:38:39.604Z,39.90
2023-02-16T09:41:08.943Z,39.30
2023-02-16T09:43:37.020Z,38.90
2023-02-16T09:46:05.385Z,38.70
2023-02-16T09:48:42.886Z,38.40
2023-02-16T09:51:11.585Z,38.20
2023-02-16T09:53:40.375Z,38.10
2023-02-16T09:56:20.203Z,37.80
2023-02-16T09:59:07.323Z,37.60
2023-02-16T10:01:50.834Z,37.70
2023-02-16T10:04:23.851Z,37.80
2023-02-16T10:06:58.387Z,38.30
2023-02-16T10:09:27.296Z,39.00
2023-02-16T10:12:00.315Z,38.90
2023-02-16T10:14:37.536Z,39.20
2023-02-16T10:17:20.603Z,39.40
2023-02-16T10:19:57.443Z,39.20
2023-02-16T10:22:31.109Z,38.50
2023-02-16T10:25:00.906Z,38.20
2023-02-16T10:27:33.037Z,38.20
2023-02-16T10:29:59.887Z,37.90
2023-02-16T10:32:29.290Z,38.10
2023-02-16T10:35:04.693Z,37.90
2023-02-16T10:37:43.388Z,38.00
2023-02-16T10:40:12.929Z,38.60
2023-02-16T10:42:46.536Z,39.40
2023-02-16T10:45:13.362Z,39.90
2023-02-16T10:47:41.850Z,40.10
2023-02-16T10:50:19.215Z,40.20
2023-02-16T10:52:46.064Z,40.30
2023-02-16T10:55:13.152Z,40.70
2023-02-16T10:57:40.577Z,40.90
2023-02-16T11:00:11.588Z,41.20
2023-02-16T11:02:42.664Z,41.30
2023-02-16T11:05:28.036Z,40.80
2023-02-16T11:07:57.051Z,40.00
2023-02-16T11:10:38.409Z,38.40
2023-02-16T11:13:05.812Z,37.90
2023-02-16T11:15:32.926Z,37.50
2023-02-16T11:18:04.887Z,36.50
2023-02-16T11:20:31.961Z,35.30
2023-02-16T11:23:22.866Z,33.70
2023-02-16T11:26:00.639Z,33.70
2023-02-16T11:28:32.055Z,33.80
2023-02-16T11:31:05.288Z,34.10
2023-02-16T11:33:32.707Z,34.60
2023-02-16T11:36:02.432Z,34.30
2023-02-16T11:38:29.308Z,34.20
2023-02-16T11:40:57.144Z,34.60
2023-02-16T11:43:26.200Z,34.80
2023-02-16T11:45:57.526Z,34.20
2023-02-16T11:48:29.589Z,33.80
2023-02-16T11:50:58.270Z,33.20
2023-02-16T11:53:29.376Z,32.40
2023-02-16T11:56:25.532Z,31.70
2023-02-16T11:59:12.786Z,31.70
2023-02-16T12:01:58.452Z,31.70
2023-02-16T12:04:48.973Z,31.40
2023-02-16T12:07:16.521Z,31.10
2023-02-16T12:09:52.380Z,31.20
2023-02-16T12:12:33.841Z,31.00
2023-02-16T12:15:06.968Z,30.90
2023-02-16T12:17:33.815Z,30.90
2023-02-16T12:20:12.929Z,31.10
2023-02-16T12:22:43.284Z,31.00
2023-02-16T12:25:18.781Z,30.90
2023-02-16T12:27:50.154Z,30.80
2023-02-16T12:30:25.435Z,30.50
2023-02-16T12:33:11.478Z,30.70
2023-02-16T12:36:17.253Z,30.40
2023-02-16T12:38:44.057Z,30.60
2023-02-16T12:41:23.536Z,32.10
2023-02-16T12:43:55.527Z,32.40
2023-02-16T12:46:24.001Z,32.00
2023-02-16T12:48:53.896Z,31.90
2023-02-16T12:51:22.648Z,32.10
2023-02-16T12:53:53.418Z,32.60
2023-02-16T12:56:28.553Z,32.40
2023-02-16T12:59:00.577Z,32.20
2023-02-16T13:01:29.681Z,32.50
2023-02-16T13:03:58.572Z,32.90
2023-02-16T13:06:25.518Z,33.30
2023-02-16T13:08:57.552Z,33.20
2023-02-16T13:11:34.784Z,33.00
2023-02-16T13:14:05.100Z,32.50
2023-02-16T13:16:44.207Z,32.30
2023-02-16T13:19:12.479Z,32.30
2023-02-16T13:21:50.439Z,32.80
2023-02-16T13:24:30.922Z,33.70
2023-02-16T13:27:21.016Z,33.50
2023-02-16T13:29:48.050Z,33.00
2023-02-16T13:32:30.100Z,32.60
2023-02-16T13:35:08.886Z,33.00
2023-02-16T13:37:56.358Z,33.30
2023-02-16T13:40:42.712Z,33.90
2023-02-16T13:43:30.118Z,34.20
2023-02-16T13:45:57.029Z,34.70
2023-02-16T13:48:29.628Z,34.80
2023-02-16T13:50:58.509Z,34.90
2023-02-16T13:53:25.752Z,35.00
2023-02-16T13:56:12.509Z,35.70
2023-02-16T13:58:40.838Z,35.60
2023-02-16T14:01:26.308Z,36.30
2023-02-16T14:03:53.121Z,37.20
2023-02-16T14:06:26.885Z,37.10
2023-02-16T14:09:21.275Z,36.60
2023-02-16T14:11:54.518Z,36.50
2023-02-16T14:14:36.736Z,36.60
2023-02-16T14:17:18.626Z,37.90
2023-02-16T14:19:54.502Z,39.30
2023-02-16T14:22:23.207Z,40.20
2023-02-16T14:24:54.847Z,40.30
2023-02-16T14:27:40.564Z,40.00
2023-02-16T14:30:20.095Z,39.40
2023-02-16T14:32:52.682Z,39.40
2023-02-16T14:35:28.252Z,39.70
2023-02-16T14:37:55.035Z,39.40
2023-02-16T14:40:42.127Z,39.30
2023-02-16T14:43:24.598Z,39.60
2023-02-16T14:46:10.336Z,39.80
2023-02-16T14:48:46.433Z,40.00
2023-02-16T14:51:22.806Z,40.30
2023-02-16T14:53:55.646Z,40.80
2023-02-16T14:56:35.216Z,41.10
2023-02-16T14:59:04.747Z,41.00
2023-02-16T15:01:39.319Z,41.00
2023-02-16T15:04:06.691Z,41.30
2023-02-16T15:06:51.450Z,41.20
2023-02-16T15:09:23.536Z,41.50
2023-02-16T15:12:11.145Z,42.10
2023-02-16T15:14:42.893Z,42.60
2023-02-16T15:17:10.298Z,42.80
2023-02-16T15:19:37.432Z,43.10
2023-02-16T15:22:07.961Z,43.60
2023-02-16T15:24:34.786Z,44.30
2023-02-16T15:27:02.836Z,44.80
2023-02-16T15:29:29.804Z,45.50
2023-02-16T15:31:58.702Z,46.30
2023-02-16T15:34:28.394Z,47.40
2023-02-16T15:36:55.681Z,48.20
2023-02-16T15:39:38.542Z,48.90
2023-02-16T15:42:30.348Z,49.60
2023-02-16T15:44:57.177Z,50.30
2023-02-16T15:47:25.508Z,51.40
2023-02-16T15:49:52.753Z,52.30
2023-02-16T15:52:35.812Z,53.20
2023-02-16T15:55:04.593Z,53.90
2023-02-16T15:57:32.628Z,54.60
2023-02-16T16:00:00.922Z,55.30
2023-02-16T16:02:38.483Z,55.80
2023-02-16T16:05:09.662Z,56.10
2023-02-16T16:07:41.493Z,56.40
2023-02-16T16:10:37.039Z,56.80
2023-02-16T16:13:21.480Z,57.20
2023-02-16T16:15:50.254Z,57.50
2023-02-16T16:18:39.393Z,57.80
2023-02-16T16:21:17.027Z,58.70
2023-02-16T16:24:04.549Z,58.80
2023-02-16T16:26:35.288Z,59.20
2023-02-16T16:29:03.658Z,59.20
2023-02-16T16:31:33.640Z,59.60
2023-02-16T16:34:10.225Z,60.00
2023-02-16T16:36:47.684Z,60.50
2023-02-16T16:39:17.572Z,60.70
2023-02-16T16:42:09.268Z,61.10
2023-02-16T16:44:36.142Z,62.00
2023-02-16T16:47:37.318Z,61.90
2023-02-16T16:50:30.297Z,62.90
2023-02-16T16:52:58.131Z,63.30
2023-02-16T16:55:28.400Z,63.20
2023-02-16T16:58:09.929Z,63.80
2023-02-16T17:00:39.027Z,64.50
2023-02-16T17:03:08.682Z,64.80
2023-02-16T17:05:38.359Z,65.30
2023-02-16T17:08:05.577Z,65.80
2023-02-16T17:10:32.575Z,66.10
2023-02-16T17:12:59.854Z,66.40
2023-02-16T17:15:32.813Z,66.80
2023-02-16T17:17:59.755Z,67.10
2023-02-16T17:20:26.827Z,67.10
2023-02-16T17:22:53.635Z,67.30
2023-02-16T17:25:20.421Z,67.60
2023-02-16T17:27:47.297Z,67.80
2023-02-16T17:30:14.437Z,68.00
2023-02-16T17:32:41.310Z,68.20
2023-02-16T17:35:08.300Z,68.20
2023-02-16T17:37:35.644Z,68.30
2023-02-16T17:40:03.999Z,68.60
2023-02-16T17:42:31.389Z,68.80
2023-02-16T17:44:58.247Z,69.00
2023-02-16T17:47:25.075Z,69.20
2023-02-16T17:49:51.981Z,69.40
2023-02-16T17:52:18.893Z,69.70
2023-02-16T17:54:45.889Z,69.70
2023-02-16T17:57:13.020Z,70.00
2023-02-16T17:59:42.163Z,70.00
2023-02-16T18:02:10.280Z,71.00
2023-02-16T18:04:40.856Z,70.20
2023-02-16T18:07:10.316Z,70.20
2023-02-16T18:09:37.157Z,70.40
2023-02-16T18:12:04.133Z,70.40
2023-02-16T18:14:30.982Z,70.40
2023-02-16T18:16:59.836Z,70.60
2023-02-16T18:19:27.214Z,70.80
2023-02-16T18:21:54.493Z,70.90
2023-02-16T18:24:21.691Z,70.80
2023-02-16T18:26:49.798Z,70.90
2023-02-16T18:29:16.955Z,70.90
2023-02-16T18:31:44.217Z,71.10
2023-02-16T18:34:11.064Z,71.00
2023-02-16T18:36:38.240Z,71.30
2023-02-16T18:39:05.742Z,71.30
2023-02-16T18:41:32.689Z,71.50
2023-02-16T18:43:59.581Z,71.60
2023-02-16T18:46:26.424Z,71.60
2023-02-16T18:48:53.292Z,71.90
2023-02-16T18:51:23.532Z,72.00
2023-02-16T18:53:50.325Z,72.00
2023-02-16T18:56:17.331Z,72.00
2023-02-16T18:58:44.158Z,72.30
2023-02-16T19:01:12.069Z,73.20
2023-02-16T19:03:39.123Z,72.50
2023-02-16T19:06:06.498Z,72.60
2023-02-16T19:08:33.436Z,72.80
2023-02-16T19:11:00.284Z,72.90
2023-02-16T19:13:27.142Z,73.10
2023-02-16T19:15:53.970Z,73.00
2023-02-16T19:18:20.866Z,73.10
2023-02-16T19:20:47.670Z,73.20
2023-02-16T19:23:14.480Z,73.50
2023-02-16T19:25:41.358Z,73.70
2023-02-16T19:28:08.212Z,73.70
2023-02-16T19:30:35.015Z,73.80
2023-02-16T19:33:01.895Z,73.90
2023-02-16T19:35:28.716Z,74.00
2023-02-16T19:37:55.920Z,74.00
2023-02-16T19:40:22.914Z,74.40
2023-02-16T19:42:49.810Z,74.30
2023-02-16T19:45:16.653Z,74.40
2023-02-16T19:47:43.453Z,74.70
2023-02-16T19:50:10.423Z,74.60
2023-02-16T19:52:37.256Z,74.90
2023-02-16T19:55:04.132Z,74.90
2023-02-16T19:57:31.247Z,75.30
2023-02-16T19:59:58.067Z,75.30
2023-02-16T20:02:24.947Z,75.70
2023-02-16T20:04:53.286Z,75.70
2023-02-16T20:07:20.077Z,75.90
2023-02-16T20:09:46.884Z,75.80
2023-02-16T20:12:13.792Z,76.10
2023-02-16T20:14:40.597Z,76.40
2023-02-16T20:17:07.416Z,76.50
2023-02-16T20:19:34.256Z,76.60
2023-02-16T20:22:01.150Z,76.70
2023-02-16T20:24:27.961Z,76.70
2023-02-16T20:26:54.954Z,76.70
2023-02-16T20:29:22.151Z,76.70
2023-02-16T20:31:50.942Z,76.90
2023-02-16T20:34:19.199Z,77.30
2023-02-16T20:36:46.052Z,77.50
2023-02-16T20:39:13.500Z,77.40
2023-02-16T20:41:41.377Z,77.60
2023-02-16T20:44:08.639Z,77.60
2023-02-16T20:46:35.616Z,77.60
2023-02-16T20:49:04.175Z,77.60
2023-02-16T20:51:31.137Z,77.90
2023-02-16T20:54:01.328Z,77.80
2023-02-16T20:56:28.573Z,77.90
2023-02-16T20:58:56.122Z,78.00
2023-02-16T21:01:24.936Z,77.90
2023-02-16T21:03:52.388Z,78.00
2023-02-16T21:06:19.601Z,78.80
2023-02-16T21:08:46.608Z,78.20
2023-02-16T21:11:13.769Z,78.00
2023-02-16T21:13:41.351Z,78.00
2023-02-16T21:16:08.990Z,78.00
2023-02-16T21:18:36.611Z,78.10
2023-02-16T21:21:04.694Z,78.10
2023-02-16T21:23:31.600Z,78.00
2023-02-16T21:26:02.750Z,78.10
2023-02-16T21:28:29.867Z,78.10
2023-02-16T21:30:56.741Z,78.40
2023-02-16T21:33:23.604Z,78.30
2023-02-16T21:35:50.378Z,78.30
2023-02-16T21:38:17.796Z,78.20
2023-02-16T21:41:03.448Z,79.10
2023-02-16T21:43:30.273Z,78.30
2023-02-16T21:46:00.922Z,78.30
2023-02-16T21:48:46.828Z,78.40
2023-02-16T21:51:15.113Z,78.50
2023-02-16T21:53:41.983Z,78.50
2023-02-16T21:56:17.736Z,78.60
2023-02-16T21:58:44.606Z,78.70
2023-02-16T22:01:11.508Z,78.80
2023-02-16T22:03:38.591Z,78.80
2023-02-16T22:06:07.431Z,79.00
2023-02-16T22:08:36.839Z,79.10
2023-02-16T22:11:04.646Z,79.10
2023-02-16T22:13:31.588Z,79.20
2023-02-16T22:15:58.361Z,79.20
2023-02-16T22:18:25.120Z,79.30
2023-02-16T22:20:51.989Z,79.40
2023-02-16T22:23:18.843Z,79.50
2023-02-16T22:25:45.735Z,79.70
2023-02-16T22:28:12.519Z,79.90
2023-02-16T22:30:39.374Z,80.00
2023-02-16T22:33:06.223Z,80.00
2023-02-16T22:35:33.451Z,79.80
2023-02-16T22:38:00.247Z,80.00
2023-02-16T22:40:27.100Z,80.00
2023-02-16T22:42:53.956Z,81.00
2023-02-16T22:45:20.738Z,80.40
2023-02-16T22:47:47.618Z,80.40
2023-02-16T22:50:14.392Z,80.40
2023-02-16T22:52:41.331Z,80.50
2023-02-16T22:55:08.395Z,80.50
2023-02-16T22:57:35.850Z,80.50
2023-02-16T23:00:04.878Z,80.40
2023-02-16T23:02:32.318Z,80.20
2023-02-16T23:05:00.541Z,80.20
2023-02-16T23:07:27.456Z,80.40
2023-02-16T23:09:54.248Z,80.30
2023-02-16T23:12:21.047Z,80.20
2023-02-16T23:14:47.920Z,80.20
2023-02-16T23:17:14.696Z,80.20
2023-02-16T23:19:41.585Z,80.10
2023-02-16T23:22:08.396Z,80.10
2023-02-16T23:24:36.288Z,80.10
2023-02-16T23:27:03.117Z,80.20
2023-02-16T23:29:30.181Z,80.30
2023-02-16T23:31:57.070Z,80.50
2023-02-16T23:34:23.933Z,80.80
2023-02-16T23:36:50.796Z,80.90
2023-02-16T23:39:18.169Z,81.20
2023-02-16T23:41:45.404Z,81.30
2023-02-16T23:44:13.453Z,81.40
2023-02-16T23:46:40.246Z,81.30
2023-02-16T23:49:07.552Z,81.50
2023-02-16T23:51:34.357Z,81.30
2023-02-16T23:54:01.239Z,81.30
2023-02-16T23:56:28.616Z,81.40
2023-02-16T23:59:01.305Z,81.40
